Areia Branca, Brazil
Current Conditions -  °F | °C
As of 3:00 PM on Friday 19 Dec 2014 (Local Time) from SBAR Reporting Station
Broken Clouds Broken Clouds  
Wind Chill: 82°   Ceiling: 10000
Heat Index: 87°   Visibility: 6mi
Dew Point: 72°   Wind: 18mph
Humidity: 70%   Direction: 90°E
Pressure: 29.83"   Gusts: NA
Location:  10.76°S, 37.32°W
Report Text: SBAR 191800Z 09016KT 9999 SCT017 BKN100 28/22 Q1010
Loading
Personal Weather Stations






























Interactive Weather Map New forecast layout! Learn more

10-Day Weather Forecast

Advertisements
Track Severe Weather on mobile